createdAt,value
2019-06-26T00:00:23.908Z,0
2019-06-26T00:01:24.567Z,0
2019-06-26T00:02:25.224Z,0
2019-06-26T00:03:25.883Z,0
2019-06-26T00:04:26.544Z,0
2019-06-26T00:05:27.202Z,0
2019-06-26T00:06:27.898Z,0
2019-06-26T00:07:28.517Z,0
2019-06-26T00:08:29.177Z,0
2019-06-26T00:09:29.834Z,0
2019-06-26T00:10:30.504Z,0
2019-06-26T00:11:31.222Z,0
2019-06-26T00:12:31.879Z,0
2019-06-26T00:13:32.536Z,0
2019-06-26T00:14:33.197Z,0
2019-06-26T00:15:33.890Z,0
2019-06-26T00:16:34.569Z,0
2019-06-26T00:17:35.248Z,0
2019-06-26T00:18:35.907Z,0
2019-06-26T00:20:53.123Z,0
2019-06-26T00:21:53.776Z,0
2019-06-26T00:22:54.433Z,0
2019-06-26T00:23:55.094Z,0
2019-06-26T00:24:55.751Z,0
2019-06-26T00:25:56.413Z,0
2019-06-26T00:26:57.069Z,0
2019-06-26T00:27:57.727Z,0
2019-06-26T00:28:58.387Z,0
2019-06-26T00:29:59.042Z,0
2019-06-26T00:30:59.703Z,0
2019-06-26T00:32:00.394Z,0
2019-06-26T00:33:01.063Z,0
2019-06-26T00:34:01.757Z,0
2019-06-26T00:35:02.414Z,0
2019-06-26T00:36:03.073Z,0
2019-06-26T00:37:03.733Z,0
2019-06-26T00:38:04.399Z,0
2019-06-26T00:39:05.051Z,0
2019-06-26T00:40:05.745Z,0
2019-06-26T00:41:06.365Z,0
2019-06-26T00:42:07.023Z,0
2019-06-26T00:43:07.682Z,0
2019-06-26T00:44:08.339Z,0
2019-06-26T00:45:08.999Z,0
2019-06-26T00:46:09.657Z,0
2019-06-26T00:47:10.313Z,0
2019-06-26T00:48:10.978Z,0
2019-06-26T00:49:11.636Z,0
2019-06-26T00:50:12.295Z,0
2019-06-26T00:51:12.952Z,0
2019-06-26T00:52:13.613Z,0
2019-06-26T00:53:14.310Z,0
2019-06-26T00:54:14.969Z,0
2019-06-26T00:55:15.628Z,0
2019-06-26T00:56:16.286Z,0
2019-06-26T00:57:16.995Z,0
2019-06-26T00:58:17.679Z,0
2019-06-26T00:59:18.338Z,0
2019-06-26T01:00:19.001Z,0
2019-06-26T01:01:19.657Z,0
2019-06-26T01:02:20.315Z,0
2019-06-26T01:03:20.976Z,0
2019-06-26T01:04:21.632Z,0
2019-06-26T01:05:22.291Z,0
2019-06-26T01:06:22.950Z,0
2019-06-26T01:07:23.608Z,0
2019-06-26T01:08:24.266Z,0
2019-06-26T01:09:24.927Z,0
2019-06-26T01:10:25.584Z,0
2019-06-26T01:11:26.243Z,0
2019-06-26T01:12:26.902Z,0
2019-06-26T01:13:27.561Z,0
2019-06-26T01:14:28.221Z,0
2019-06-26T01:15:28.880Z,0
2019-06-26T01:16:29.600Z,0
2019-06-26T01:17:30.237Z,0
2019-06-26T01:18:30.939Z,0
2019-06-26T01:19:31.598Z,0
2019-06-26T01:20:32.256Z,0
2019-06-26T01:21:32.919Z,0
2019-06-26T01:22:33.570Z,0
2019-06-26T01:23:34.235Z,0
2019-06-26T01:24:34.887Z,0
2019-06-26T01:25:35.548Z,0
2019-06-26T01:26:36.205Z,0
2019-06-26T01:27:36.863Z,0
2019-06-26T01:28:37.521Z,0
2019-06-26T01:29:38.180Z,0
2019-06-26T01:30:38.842Z,0
2019-06-26T01:31:39.519Z,0
2019-06-26T01:32:40.148Z,0
2019-06-26T01:33:40.808Z,0
2019-06-26T01:34:41.474Z,0
2019-06-26T01:35:42.128Z,0
2019-06-26T01:36:42.781Z,0
2019-06-26T01:37:43.440Z,0
2019-06-26T01:38:44.109Z,0
2019-06-26T01:39:44.794Z,0
2019-06-26T01:40:45.454Z,0
2019-06-26T01:41:46.111Z,0
2019-06-26T01:42:46.772Z,0
2019-06-26T01:43:47.430Z,0
2019-06-26T01:44:48.089Z,0
2019-06-26T01:45:48.746Z,0
2019-06-26T01:46:49.403Z,0
2019-06-26T01:47:50.065Z,0
2019-06-26T01:48:50.851Z,0
2019-06-26T01:49:51.533Z,0
2019-06-26T01:50:52.225Z,0
2019-06-26T01:51:52.892Z,0
2019-06-26T01:52:53.545Z,0
2019-06-26T01:53:54.204Z,0
2019-06-26T01:54:54.861Z,0
2019-06-26T01:55:55.519Z,0
2019-06-26T01:56:56.179Z,0
2019-06-26T01:57:56.842Z,0
2019-06-26T01:58:57.532Z,0
2019-06-26T01:59:58.191Z,0
2019-06-26T02:00:58.856Z,0
2019-06-26T02:01:59.508Z,0
2019-06-26T02:03:00.167Z,0
2019-06-26T02:04:00.831Z,0
2019-06-26T02:05:01.524Z,0
2019-06-26T02:06:02.213Z,0
2019-06-26T02:07:02.872Z,0
2019-06-26T02:08:18.397Z,0
2019-06-26T02:09:19.057Z,0
2019-06-26T02:10:19.715Z,0
2019-06-26T02:11:20.416Z,0
2019-06-26T02:12:21.069Z,0
2019-06-26T02:13:21.727Z,0
2019-06-26T02:14:31.179Z,0
2019-06-26T02:15:24.037Z,0
2019-06-26T02:16:24.696Z,0
2019-06-26T02:17:25.353Z,0
2019-06-26T02:18:26.012Z,0
2019-06-26T02:19:26.673Z,0
2019-06-26T02:20:27.366Z,0
2019-06-26T02:21:28.037Z,0
2019-06-26T02:22:28.708Z,0
2019-06-26T02:23:29.416Z,0
2019-06-26T02:24:30.089Z,0
2019-06-26T02:25:30.759Z,0
2019-06-26T02:26:31.430Z,4
2019-06-26T02:27:32.111Z,4
2019-06-26T02:28:32.817Z,4
2019-06-26T02:29:33.480Z,4
2019-06-26T02:30:34.149Z,4
2019-06-26T02:31:34.819Z,4
2019-06-26T02:32:35.489Z,4
2019-06-26T02:33:36.157Z,8
2019-06-26T02:34:36.827Z,4
2019-06-26T02:35:37.494Z,8
2019-06-26T02:36:38.166Z,8
2019-06-26T02:37:38.836Z,8
2019-06-26T02:38:39.504Z,12
2019-06-26T02:39:40.175Z,12
2019-06-26T02:40:40.844Z,12
2019-06-26T02:41:41.522Z,12
2019-06-26T02:42:42.182Z,20
2019-06-26T02:43:42.852Z,16
2019-06-26T02:44:53.242Z,20
2019-06-26T02:45:45.183Z,24
2019-06-26T02:46:45.853Z,28
2019-06-26T02:47:46.530Z,28
2019-06-26T02:48:47.193Z,36
2019-06-26T02:49:47.861Z,36
2019-06-26T02:50:48.531Z,40
2019-06-26T02:51:49.210Z,44
2019-06-26T02:52:49.912Z,48
2019-06-26T02:53:50.592Z,52
2019-06-26T02:54:51.287Z,60
2019-06-26T02:55:51.993Z,64
2019-06-26T02:56:52.664Z,72
2019-06-26T02:57:53.333Z,76
2019-06-26T02:58:54.003Z,84
2019-06-26T02:59:54.711Z,88
2019-06-26T03:01:57.035Z,104
2019-06-26T03:02:57.691Z,112
2019-06-26T03:03:58.399Z,116
2019-06-26T03:05:14.520Z,128
2019-06-26T03:06:15.181Z,136
2019-06-26T03:07:43.554Z,152
2019-06-26T03:08:56.874Z,168
2019-06-26T03:09:57.547Z,176
2019-06-26T03:10:58.219Z,188
2019-06-26T03:11:58.890Z,200
2019-06-26T03:12:59.562Z,212
2019-06-26T03:14:00.232Z,232
2019-06-26T03:15:08.678Z,248
2019-06-26T03:16:02.568Z,268
2019-06-26T03:17:03.281Z,284
2019-06-26T03:18:03.949Z,304
2019-06-26T03:19:04.622Z,328
2019-06-26T03:20:05.295Z,344
2019-06-26T03:21:05.970Z,364
2019-06-26T03:22:06.679Z,384
2019-06-26T03:23:07.353Z,400
2019-06-26T03:24:08.027Z,420
2019-06-26T03:25:08.702Z,436
2019-06-26T03:26:09.368Z,460
2019-06-26T03:27:10.041Z,480
2019-06-26T03:28:10.716Z,500
2019-06-26T03:29:11.388Z,520
2019-06-26T03:30:12.061Z,544
2019-06-26T03:31:12.729Z,564
2019-06-26T03:32:13.400Z,584
2019-06-26T03:33:14.073Z,604
2019-06-26T03:34:14.747Z,628
2019-06-26T03:35:15.419Z,648
2019-06-26T03:36:16.090Z,672
2019-06-26T03:37:16.762Z,688
2019-06-26T03:38:17.434Z,716
2019-06-26T03:39:18.110Z,740
2019-06-26T03:40:18.817Z,764
2019-06-26T03:41:19.494Z,792
2019-06-26T03:42:20.163Z,812
2019-06-26T03:43:20.833Z,840
2019-06-26T03:44:21.506Z,868
2019-06-26T03:45:26.057Z,892
2019-06-26T03:46:23.840Z,920
2019-06-26T03:47:24.515Z,944
2019-06-26T03:48:25.189Z,972
2019-06-26T03:49:25.857Z,996
2019-06-26T03:50:26.532Z,1024
2019-06-26T03:51:27.206Z,1044
2019-06-26T03:52:27.915Z,1068
2019-06-26T03:53:28.595Z,1084
2019-06-26T03:54:29.298Z,1100
2019-06-26T03:55:29.971Z,1112
2019-06-26T03:56:30.695Z,1120
2019-06-26T03:57:31.337Z,1128
2019-06-26T03:58:32.011Z,1140
2019-06-26T03:59:32.684Z,1140
2019-06-26T04:00:33.356Z,1140
2019-06-26T04:01:34.029Z,1136
2019-06-26T04:02:34.704Z,1128
2019-06-26T04:03:35.377Z,1112
2019-06-26T04:04:36.049Z,1088
2019-06-26T04:05:36.722Z,1056
2019-06-26T04:06:37.395Z,1036
2019-06-26T04:07:38.066Z,1024
2019-06-26T04:08:38.740Z,1020
2019-06-26T04:09:39.414Z,1028
2019-06-26T04:10:43.312Z,1052
2019-06-26T04:11:41.754Z,1080
2019-06-26T04:12:42.441Z,1116
2019-06-26T04:13:43.102Z,1168
2019-06-26T04:14:43.773Z,1220
2019-06-26T04:15:44.447Z,1284
2019-06-26T04:16:45.119Z,1352
2019-06-26T04:17:45.806Z,1432
2019-06-26T04:18:46.468Z,1516
2019-06-26T04:19:47.144Z,1608
2019-06-26T04:20:47.887Z,1708
2019-06-26T04:21:48.520Z,1800
2019-06-26T04:22:49.196Z,1876
2019-06-26T04:23:49.875Z,1952
2019-06-26T04:24:50.551Z,2020
2019-06-26T04:25:51.218Z,2080
2019-06-26T04:26:51.908Z,2120
2019-06-26T04:27:52.602Z,2160
2019-06-26T04:28:53.279Z,2200
2019-06-26T04:29:53.951Z,2236
2019-06-26T04:30:54.623Z,2276
2019-06-26T04:31:55.296Z,2312
2019-06-26T04:32:55.969Z,2348
2019-06-26T04:33:56.710Z,2384
2019-06-26T04:34:57.381Z,2420
2019-06-26T04:35:58.086Z,2452
2019-06-26T04:36:58.763Z,2484
2019-06-26T04:37:59.438Z,2512
2019-06-26T04:39:00.112Z,2536
2019-06-26T04:40:00.785Z,2564
2019-06-26T04:41:01.458Z,2592
2019-06-26T04:42:02.132Z,2612
2019-06-26T04:43:02.832Z,2640
2019-06-26T04:44:03.478Z,2668
2019-06-26T04:45:04.155Z,2696
2019-06-26T04:46:04.830Z,2720
2019-06-26T04:47:05.501Z,2740
2019-06-26T04:48:07.329Z,2768
2019-06-26T04:49:07.841Z,2792
2019-06-26T04:50:08.516Z,2816
2019-06-26T04:51:09.190Z,2840
2019-06-26T04:52:09.866Z,2868
2019-06-26T04:53:10.541Z,2892
2019-06-26T04:54:11.219Z,2916
2019-06-26T04:55:11.938Z,2944
2019-06-26T04:56:12.651Z,2964
2019-06-26T04:57:13.322Z,2988
2019-06-26T04:58:13.992Z,3012
2019-06-26T04:59:14.665Z,3032
2019-06-26T05:00:15.344Z,3056
2019-06-26T05:01:16.068Z,3080
2019-06-26T05:02:16.818Z,3100
2019-06-26T05:03:17.495Z,3128
2019-06-26T05:04:18.170Z,3172
2019-06-26T05:05:18.838Z,3192
2019-06-26T05:06:19.513Z,3220
2019-06-26T05:07:20.198Z,3248
2019-06-26T05:08:20.911Z,3276
2019-06-26T05:09:21.654Z,3300
2019-06-26T05:10:22.335Z,3324
2019-06-26T05:11:23.025Z,3356
2019-06-26T05:12:23.684Z,3384
2019-06-26T05:13:24.360Z,3424
2019-06-26T05:14:25.042Z,3440
2019-06-26T05:15:25.747Z,3472
2019-06-26T05:16:26.425Z,3496
2019-06-26T05:17:27.142Z,3524
2019-06-26T05:18:27.817Z,3564
2019-06-26T05:19:28.531Z,3600
2019-06-26T05:20:29.208Z,3636
2019-06-26T05:21:29.914Z,3668
2019-06-26T05:22:30.592Z,3704
2019-06-26T05:23:31.301Z,3740
2019-06-26T05:24:31.977Z,3772
2019-06-26T05:25:32.690Z,3812
2019-06-26T05:26:33.370Z,3848
2019-06-26T05:27:34.042Z,3888
2019-06-26T05:28:34.721Z,3928
2019-06-26T05:29:35.441Z,3964
2019-06-26T05:30:36.146Z,4000
2019-06-26T05:31:36.822Z,4032
2019-06-26T05:32:37.498Z,4064
2019-06-26T05:33:38.187Z,4100
2019-06-26T05:34:38.851Z,4140
2019-06-26T05:35:39.567Z,4176
2019-06-26T05:36:40.256Z,4212
2019-06-26T05:37:40.935Z,4256
2019-06-26T05:38:41.647Z,4292
2019-06-26T05:39:42.318Z,4340
2019-06-26T05:40:42.995Z,4384
2019-06-26T05:42:45.330Z,4484
2019-06-26T05:43:45.992Z,4544
2019-06-26T05:44:46.693Z,4596
2019-06-26T05:45:47.357Z,4660
2019-06-26T05:46:48.023Z,4716
2019-06-26T05:47:48.686Z,4768
2019-06-26T05:48:49.352Z,4828
2019-06-26T05:49:50.018Z,4888
2019-06-26T05:50:50.685Z,4948
2019-06-26T05:51:51.349Z,5012
2019-06-26T05:52:52.013Z,5080
2019-06-26T05:54:54.362Z,5208
2019-06-26T05:55:55.647Z,5264
2019-06-26T05:56:56.348Z,5324
2019-06-26T05:57:57.014Z,5396
2019-06-26T05:58:57.690Z,5496
2019-06-26T06:01:00.009Z,5660
2019-06-26T06:02:00.674Z,5776
2019-06-26T06:03:01.342Z,5896
2019-06-26T06:04:52.529Z,6152
2019-06-26T06:05:53.188Z,6328
2019-06-26T06:06:53.889Z,6544
2019-06-26T06:07:54.566Z,6776
2019-06-26T06:08:55.232Z,7132
2019-06-26T06:09:55.887Z,10616
2019-06-26T06:10:58.316Z,37376
2019-06-26T06:11:58.212Z,54944
2019-06-26T06:12:58.885Z,53536
2019-06-26T06:13:59.584Z,54688
2019-06-26T06:15:00.250Z,61856
2019-06-26T06:16:23.596Z,71200
2019-06-26T06:17:24.445Z,78848
2019-06-26T06:18:25.012Z,89440
2019-06-26T06:20:27.374Z,71360
2019-06-26T06:21:28.045Z,65312
2019-06-26T06:22:28.715Z,57408
2019-06-26T06:23:29.415Z,63456
2019-06-26T06:24:30.166Z,73408
2019-06-26T06:25:30.800Z,86080
2019-06-26T06:26:31.501Z,88544
2019-06-26T06:27:32.174Z,89312
2019-06-26T06:28:32.854Z,93472
2019-06-26T06:29:33.550Z,86880
2019-06-26T06:30:34.229Z,84736
2019-06-26T06:31:34.992Z,85312
2019-06-26T06:32:35.598Z,79360
2019-06-26T06:34:21.483Z,76416
2019-06-26T06:35:22.168Z,72928
2019-06-26T06:36:22.858Z,76096
2019-06-26T06:38:51.715Z,73408
2019-06-26T06:39:52.388Z,76192
2019-06-26T06:40:53.064Z,79520
2019-06-26T06:41:53.731Z,74848
2019-06-26T06:42:54.410Z,73216
2019-06-26T06:44:27.802Z,70656
2019-06-26T06:45:28.475Z,70368
2019-06-26T06:46:29.159Z,72800
2019-06-26T06:47:29.844Z,72704
2019-06-26T06:48:30.528Z,70368
2019-06-26T06:49:31.211Z,68608
2019-06-26T06:50:31.897Z,66176
2019-06-26T06:51:32.581Z,64640
2019-06-26T06:52:33.264Z,68032
2019-06-26T06:53:33.950Z,71072
2019-06-26T06:54:34.633Z,73568
2019-06-26T06:55:35.317Z,76448
2019-06-26T06:56:36.013Z,77056
2019-06-26T06:57:36.745Z,75904
2019-06-26T06:58:37.456Z,71872
2019-06-26T06:59:38.142Z,71712
2019-06-26T07:00:38.828Z,67904
2019-06-26T07:01:39.508Z,67104
2019-06-26T07:02:40.196Z,71872
2019-06-26T07:03:40.878Z,71648
2019-06-26T07:04:41.575Z,72096
2019-06-26T07:11:34.213Z,70208
2019-06-26T07:12:34.893Z,69376
2019-06-26T07:13:48.214Z,68064
2019-06-26T07:14:48.924Z,66208
2019-06-26T07:15:49.641Z,67296
2019-06-26T07:16:50.310Z,67008
2019-06-26T07:17:50.985Z,63392
2019-06-26T07:18:51.661Z,62208
2019-06-26T07:19:52.336Z,63232
2019-06-26T07:20:53.011Z,66304
2019-06-26T07:21:53.687Z,71648
2019-06-26T07:22:54.364Z,71904
2019-06-26T07:23:55.041Z,66496
2019-06-26T07:24:55.725Z,61184
2019-06-26T07:25:56.433Z,59296
2019-06-26T07:26:57.109Z,62752
2019-06-26T07:28:01.628Z,68800
2019-06-26T07:28:59.457Z,69888
2019-06-26T07:30:00.170Z,63712
2019-06-26T07:31:00.799Z,66400
2019-06-26T07:32:01.477Z,68192
2019-06-26T07:33:02.154Z,64640
2019-06-26T07:34:02.828Z,60064
2019-06-26T07:35:03.504Z,61568
2019-06-26T07:36:04.185Z,69472
2019-06-26T07:37:04.858Z,70880
2019-06-26T07:38:05.536Z,68512
2019-06-26T07:39:06.239Z,68224
2019-06-26T07:40:06.923Z,67616
2019-06-26T07:41:07.597Z,66208
2019-06-26T07:42:08.274Z,64896
2019-06-26T07:43:08.952Z,66272
2019-06-26T07:44:09.627Z,66368
2019-06-26T07:45:10.338Z,65408
2019-06-26T07:46:11.015Z,66784
2019-06-26T07:47:22.437Z,67456
2019-06-26T07:48:13.360Z,65344
2019-06-26T07:49:14.036Z,63968
2019-06-26T07:50:14.713Z,63424
2019-06-26T07:51:15.388Z,63040
2019-06-26T07:52:16.062Z,62400
2019-06-26T07:53:16.802Z,60672
2019-06-26T07:54:17.420Z,59904
2019-06-26T07:55:18.111Z,60352
2019-06-26T07:56:18.807Z,61248
2019-06-26T07:57:19.488Z,63136
2019-06-26T07:58:20.198Z,61088
2019-06-26T07:59:20.872Z,61216
2019-06-26T08:00:21.546Z,62208
2019-06-26T08:01:22.220Z,60320
2019-06-26T08:02:22.948Z,56576
2019-06-26T08:03:23.605Z,57760
2019-06-26T08:04:24.285Z,57408
2019-06-26T08:05:24.991Z,55232
2019-06-26T08:06:25.669Z,55872
2019-06-26T08:07:26.382Z,54208
2019-06-26T08:08:27.056Z,54624
2019-06-26T08:09:27.727Z,55616
2019-06-26T08:10:28.402Z,54496
2019-06-26T08:11:29.076Z,51008
2019-06-26T08:12:29.751Z,50432
2019-06-26T08:13:30.427Z,46592
2019-06-26T08:14:31.110Z,38432
2019-06-26T08:15:31.775Z,38752
2019-06-26T08:16:34.486Z,30112
2019-06-26T08:17:34.115Z,18080
2019-06-26T08:18:34.803Z,15328
2019-06-26T08:19:35.467Z,14524
2019-06-26T08:20:51.639Z,13928
2019-06-26T08:21:37.815Z,13308
2019-06-26T08:22:38.488Z,12792
2019-06-26T08:23:39.163Z,12340
2019-06-26T08:24:39.840Z,11856
2019-06-26T08:25:40.513Z,11452
2019-06-26T08:26:41.224Z,11080
2019-06-26T08:27:41.899Z,10752
2019-06-26T08:28:42.572Z,10436
2019-06-26T08:29:43.245Z,10152
2019-06-26T08:30:43.929Z,9896
2019-06-26T08:31:44.634Z,9896
2019-06-26T08:32:45.306Z,9772
2019-06-26T08:33:45.979Z,9424
2019-06-26T08:34:46.652Z,9224
2019-06-26T08:35:47.325Z,9056
2019-06-26T08:36:48.023Z,8888
2019-06-26T08:37:48.709Z,8744
2019-06-26T08:38:49.381Z,8596
2019-06-26T08:39:50.060Z,8496
2019-06-26T08:40:50.756Z,8384
2019-06-26T08:41:51.438Z,8288
2019-06-26T08:42:52.117Z,8184
2019-06-26T08:43:52.791Z,8064
2019-06-26T08:44:53.464Z,8012
2019-06-26T08:45:54.138Z,7856
2019-06-26T08:46:54.813Z,7804
2019-06-26T08:47:55.488Z,7728
2019-06-26T08:48:56.182Z,7656
2019-06-26T08:49:56.880Z,7608
2019-06-26T08:50:57.560Z,7568
2019-06-26T08:51:58.217Z,7508
2019-06-26T08:52:58.888Z,7452
2019-06-26T08:53:59.561Z,7440
2019-06-26T08:55:00.234Z,7408
2019-06-26T08:56:00.938Z,7360
2019-06-26T08:57:01.582Z,7316
2019-06-26T08:58:02.295Z,7260
2019-06-26T08:59:02.970Z,7220
2019-06-26T09:00:03.644Z,7176
2019-06-26T09:01:04.317Z,7124
2019-06-26T09:02:04.989Z,7064
2019-06-26T09:03:05.662Z,7040
2019-06-26T09:04:06.364Z,7016
2019-06-26T09:05:07.047Z,6992
2019-06-26T09:06:07.723Z,6960
2019-06-26T09:07:08.405Z,6912
2019-06-26T09:08:09.135Z,6856
2019-06-26T09:09:09.855Z,6820
2019-06-26T09:10:10.529Z,6796
2019-06-26T09:11:11.204Z,6772
2019-06-26T09:12:11.894Z,6744
2019-06-26T09:13:12.549Z,6716
2019-06-26T09:14:13.225Z,6684
2019-06-26T09:15:13.931Z,6644
2019-06-26T09:16:14.613Z,6548
2019-06-26T09:17:15.310Z,6508
2019-06-26T09:18:15.999Z,6480
2019-06-26T09:19:16.674Z,6448
2019-06-26T09:20:17.417Z,6412
2019-06-26T09:21:18.088Z,6396
2019-06-26T09:22:18.805Z,6392
2019-06-26T09:23:19.473Z,6404
2019-06-26T09:24:20.146Z,6392
2019-06-26T09:25:22.594Z,6348
2019-06-26T09:26:22.482Z,6316
2019-06-26T09:27:23.155Z,6280
2019-06-26T09:28:23.828Z,6244
2019-06-26T09:29:24.529Z,6216
2019-06-26T09:30:25.175Z,6188
2019-06-26T09:31:25.883Z,6164
2019-06-26T09:32:26.566Z,6164
2019-06-26T09:33:27.232Z,6168
2019-06-26T09:34:27.904Z,6164
2019-06-26T09:35:28.581Z,6156
2019-06-26T09:36:29.288Z,6176
2019-06-26T09:37:29.960Z,6176
2019-06-26T09:38:30.631Z,6200
2019-06-26T09:39:31.304Z,6236
2019-06-26T09:40:32.311Z,6324
2019-06-26T09:41:33.014Z,6440
2019-06-26T09:42:33.679Z,6496
2019-06-26T09:43:34.401Z,6444
2019-06-26T09:44:35.072Z,6412
2019-06-26T09:45:35.746Z,6424
2019-06-26T09:46:36.433Z,6476
2019-06-26T09:47:37.093Z,6492
2019-06-26T09:48:51.672Z,6480
2019-06-26T09:49:39.430Z,6416
2019-06-26T09:50:40.102Z,6356
2019-06-26T09:51:40.776Z,6208
2019-06-26T09:52:41.448Z,6080
2019-06-26T09:53:47.220Z,5960
2019-06-26T09:54:43.784Z,5968
2019-06-26T09:55:44.458Z,5944
2019-06-26T09:56:45.129Z,5904
2019-06-26T09:57:45.803Z,5916
2019-06-26T09:58:46.475Z,5896
2019-06-26T09:59:47.147Z,5888
2019-06-26T10:00:47.819Z,5792
2019-06-26T10:01:48.493Z,4972
2019-06-26T10:02:49.267Z,4696
2019-06-26T10:03:49.869Z,5940
2019-06-26T10:04:50.575Z,5892
2019-06-26T10:05:51.238Z,5788
2019-06-26T10:06:51.919Z,5756
2019-06-26T10:07:52.641Z,5656
2019-06-26T10:08:54.503Z,5556
2019-06-26T10:09:55.148Z,5496
2019-06-26T10:10:55.680Z,5436
2019-06-26T10:11:56.350Z,5392
2019-06-26T10:12:57.023Z,5336
2019-06-26T10:13:57.694Z,5260
2019-06-26T10:14:58.368Z,5204
2019-06-26T10:16:00.589Z,4864
2019-06-26T10:17:00.701Z,3656
2019-06-26T10:18:01.376Z,4392
2019-06-26T10:19:09.912Z,4884
2019-06-26T10:20:02.752Z,4920
2019-06-26T10:21:03.425Z,4964
2019-06-26T10:22:04.096Z,4980
2019-06-26T10:23:04.768Z,4920
2019-06-26T10:24:05.439Z,4848
2019-06-26T10:25:06.131Z,4836
2019-06-26T10:26:06.823Z,4804
2019-06-26T10:27:07.493Z,4764
2019-06-26T10:28:08.164Z,4768
2019-06-26T10:29:08.836Z,4720
2019-06-26T10:30:09.558Z,4724
2019-06-26T10:31:10.352Z,4684
2019-06-26T10:32:10.959Z,4708
2019-06-26T10:33:11.610Z,4724
2019-06-26T10:34:12.275Z,4712
2019-06-26T10:35:12.947Z,4740
2019-06-26T10:36:13.657Z,4736
2019-06-26T10:37:14.368Z,4688
2019-06-26T10:38:15.037Z,4772
2019-06-26T10:39:15.705Z,4776
2019-06-26T10:40:16.925Z,4784
2019-06-26T10:41:17.616Z,4780
2019-06-26T10:42:18.292Z,4708
2019-06-26T10:43:18.951Z,4660
2019-06-26T10:44:19.670Z,4812
2019-06-26T10:45:20.369Z,4868
2019-06-26T10:46:21.065Z,4996
2019-06-26T10:47:21.741Z,5092
2019-06-26T10:48:22.411Z,5280
2019-06-26T10:49:27.601Z,5404
2019-06-26T10:50:24.739Z,4744
2019-06-26T10:51:25.413Z,5640
2019-06-26T10:52:26.081Z,5896
2019-06-26T10:53:26.751Z,5924
2019-06-26T10:54:27.421Z,5560
2019-06-26T10:55:28.097Z,5052
2019-06-26T10:56:28.986Z,4824
2019-06-26T10:57:29.504Z,4720
2019-06-26T10:58:30.175Z,4672
2019-06-26T10:59:30.872Z,4632
2019-06-26T11:00:31.518Z,4436
2019-06-26T11:01:32.188Z,4616
2019-06-26T11:02:32.859Z,4636
2019-06-26T11:03:33.568Z,3780
2019-06-26T11:04:34.237Z,4572
2019-06-26T11:05:34.908Z,4660
2019-06-26T11:06:37.231Z,4684
2019-06-26T11:07:37.248Z,4684
2019-06-26T11:08:37.952Z,4704
2019-06-26T11:09:38.622Z,4740
2019-06-26T11:10:39.295Z,4732
2019-06-26T11:11:39.968Z,4748
2019-06-26T11:12:40.744Z,4860
2019-06-26T11:13:41.382Z,4880
2019-06-26T11:14:42.051Z,4960
2019-06-26T11:15:42.733Z,4956
2019-06-26T11:16:43.401Z,4896
2019-06-26T11:17:44.066Z,4920
2019-06-26T11:18:44.750Z,5080
2019-06-26T11:19:45.445Z,5172
2019-06-26T11:20:46.125Z,5172
2019-06-26T11:21:46.786Z,5224
2019-06-26T11:22:47.456Z,5364
2019-06-26T11:23:48.132Z,5316
2019-06-26T11:24:48.825Z,5208
2019-06-26T11:25:49.473Z,5176
2019-06-26T11:26:50.149Z,5036
2019-06-26T11:27:50.853Z,5004
2019-06-26T11:28:51.523Z,4992
2019-06-26T11:29:52.220Z,4888
2019-06-26T11:30:52.868Z,4800
2019-06-26T11:31:53.929Z,4776
2019-06-26T11:32:54.604Z,4788
2019-06-26T11:33:55.270Z,4968
2019-06-26T11:34:55.941Z,5268
2019-06-26T11:35:56.613Z,5380
2019-06-26T11:37:03.814Z,5324
2019-06-26T11:37:57.983Z,5008
2019-06-26T11:38:58.655Z,4844
2019-06-26T11:39:59.326Z,4844
2019-06-26T11:41:01.944Z,4880
2019-06-26T11:42:00.697Z,4836
2019-06-26T11:43:01.408Z,4804
2019-06-26T11:44:02.109Z,4876
2019-06-26T11:45:02.780Z,4872
2019-06-26T11:46:03.455Z,4860
2019-06-26T11:47:04.160Z,4844
2019-06-26T11:48:04.831Z,4800
2019-06-26T11:49:05.506Z,4648
2019-06-26T11:50:06.172Z,4776
2019-06-26T11:51:06.843Z,4824
2019-06-26T11:52:07.551Z,4844
2019-06-26T11:53:08.226Z,4844
2019-06-26T11:54:08.914Z,4940
2019-06-26T11:55:09.603Z,4976
2019-06-26T11:56:10.278Z,4892
2019-06-26T11:57:10.980Z,4824
2019-06-26T11:58:11.652Z,4776
2019-06-26T11:59:12.328Z,4768
2019-06-26T12:00:12.995Z,4736
2019-06-26T12:01:13.668Z,4724
2019-06-26T12:02:14.374Z,4728
2019-06-26T12:03:15.053Z,4764
2019-06-26T12:04:15.766Z,4788
2019-06-26T12:05:16.443Z,4784
2019-06-26T12:06:19.114Z,4784
2019-06-26T12:07:18.775Z,4788
2019-06-26T12:08:19.438Z,4784
2019-06-26T12:09:20.112Z,4768
2019-06-26T12:10:20.784Z,4756
2019-06-26T12:11:21.457Z,4760
2019-06-26T12:12:22.162Z,4768
2019-06-26T12:13:22.831Z,4760
2019-06-26T12:14:23.539Z,4744
2019-06-26T12:15:24.226Z,4824
2019-06-26T12:16:24.919Z,4832
2019-06-26T12:17:25.595Z,4848
2019-06-26T12:18:26.348Z,4840
2019-06-26T12:19:27.003Z,4856
2019-06-26T12:20:27.675Z,4852
2019-06-26T12:21:28.343Z,4848
2019-06-26T12:22:29.014Z,4860
2019-06-26T12:23:29.690Z,4860
2019-06-26T12:24:30.417Z,4856
2019-06-26T12:25:31.065Z,4796
2019-06-26T12:26:31.736Z,4776
2019-06-26T12:27:32.409Z,4776
2019-06-26T12:28:33.119Z,4804
2019-06-26T12:29:33.822Z,4820
2019-06-26T12:30:34.492Z,4860
2019-06-26T12:31:35.165Z,4888
2019-06-26T12:32:42.142Z,4896
2019-06-26T12:33:37.499Z,4880
2019-06-26T12:34:38.169Z,4876
2019-06-26T12:35:38.876Z,4872
2019-06-26T12:36:39.775Z,4868
2019-06-26T12:37:40.272Z,4840
2019-06-26T12:38:40.933Z,4836
2019-06-26T12:39:41.740Z,4832
2019-06-26T12:40:42.448Z,4860
2019-06-26T12:41:43.130Z,4916
2019-06-26T12:42:43.815Z,4924
2019-06-26T12:43:44.486Z,4924
2019-06-26T12:44:45.195Z,4944
2019-06-26T12:45:45.864Z,4984
2019-06-26T12:46:46.534Z,4992
2019-06-26T12:47:47.204Z,4976
2019-06-26T12:48:47.917Z,4972
2019-06-26T12:49:48.555Z,4956
2019-06-26T12:50:49.257Z,4944
2019-06-26T12:51:49.926Z,4904
2019-06-26T12:52:50.633Z,4932
2019-06-26T12:53:51.301Z,4932
2019-06-26T12:54:51.971Z,4944
2019-06-26T12:55:52.644Z,4976
2019-06-26T12:56:53.315Z,4992
2019-06-26T12:57:53.984Z,4956
2019-06-26T12:58:54.660Z,4920
2019-06-26T12:59:57.712Z,4872
2019-06-26T13:00:56.070Z,4916
2019-06-26T13:01:56.776Z,4952
2019-06-26T13:02:57.446Z,4944
2019-06-26T13:03:58.121Z,4952
2019-06-26T13:04:58.873Z,4968
2019-06-26T13:05:59.497Z,4980
2019-06-26T13:07:00.168Z,4992
2019-06-26T13:08:00.875Z,5032
2019-06-26T13:09:01.553Z,5028
2019-06-26T13:10:02.278Z,5024
2019-06-26T13:11:02.953Z,5052
2019-06-26T13:12:03.657Z,5056
2019-06-26T13:13:04.328Z,5036
2019-06-26T13:14:05.000Z,4996
2019-06-26T13:15:05.675Z,5020
2019-06-26T13:16:06.342Z,5004
2019-06-26T13:17:07.012Z,5008
2019-06-26T13:18:07.684Z,5036
2019-06-26T13:19:08.353Z,5052
2019-06-26T13:20:10.336Z,5052
2019-06-26T13:21:09.735Z,5052
2019-06-26T13:22:10.426Z,5060
2019-06-26T13:23:14.649Z,5032
2019-06-26T13:24:12.794Z,5076
2019-06-26T13:25:15.778Z,5036
2019-06-26T13:26:15.096Z,5012
2019-06-26T13:27:15.767Z,5004
2019-06-26T13:28:16.485Z,4980
2019-06-26T13:29:17.185Z,4996
2019-06-26T13:30:17.821Z,5016
2019-06-26T13:31:18.729Z,5020
2019-06-26T13:32:19.258Z,5044
2019-06-26T13:33:19.966Z,5064
2019-06-26T13:34:20.644Z,5000
2019-06-26T13:35:24.237Z,4972
2019-06-26T13:36:22.047Z,5000
2019-06-26T13:37:22.734Z,4996
2019-06-26T13:38:26.959Z,5016
2019-06-26T13:39:25.086Z,5040
2019-06-26T13:40:25.756Z,5048
2019-06-26T13:41:26.427Z,5096
2019-06-26T13:42:27.106Z,5092
2019-06-26T13:43:27.872Z,5112
2019-06-26T13:44:28.507Z,5152
2019-06-26T13:45:29.176Z,5156
2019-06-26T13:46:29.848Z,5116
2019-06-26T13:47:30.529Z,5116
2019-06-26T13:48:31.227Z,5088
2019-06-26T13:49:31.896Z,5056
2019-06-26T13:50:32.567Z,5100
2019-06-26T13:51:33.236Z,5120
2019-06-26T13:52:33.918Z,5164
2019-06-26T13:53:34.619Z,5192
2019-06-26T13:54:35.287Z,5112
2019-06-26T13:55:35.957Z,5160
2019-06-26T13:56:36.629Z,5184
2019-06-26T13:57:37.300Z,5160
2019-06-26T13:58:37.970Z,5148
2019-06-26T13:59:38.668Z,5160